Terminal Aerodrome Forecast
Issued by NWS

Home | Current Version | Previous Version | Text Only | Print | Product List | Glossary On
Versions: 1 2 3 4 5 6 7 8 9 10 11 12 13 14 15 16 17 18 19 20 21
000
FTUS43 KJKL 152331
TAFSME
TAF
KSME 152331Z 1600/1624 22008KT P6SM VCSH OVC025
     FM160100 22008KT P6SM VCSH OVC015
     FM160300 24008KT P6SM VCSH OVC008
     FM160800 26005KT P6SM BKN025
     FM161000 27005KT P6SM SCT120=

USA.gov is the U.S. government's official web portal to all federal, state and local government web resources and services.